Time;durP1;ratioP1;P1;durP2;ratioP2;P2;SDS_P1;SDS_P2;PMS_P1;PMS_P2;Temp;Humidity;BMP_temperature;BMP_pressure;BME280_temperature;BME280_humidity;BME280_pressure;Samples;Min_cycle;Max_cycle;Signal;HPM_P1;HPM_P2
2022/08/02 00:01:41;;;;;;;5.27;3.07;;;17.50;64.60;;;;;;5059089;28;46747;-68
2022/08/02 00:04:07;;;;;;;11.60;3.43;;;17.50;64.50;;;;;;5060157;28;47164;-68
2022/08/02 00:06:32;;;;;;;12.40;5.00;;;17.60;64.50;;;;;;5060673;28;46838;-68
2022/08/02 00:08:58;;;;;;;7.40;3.50;;;17.60;64.30;;;;;;5060932;28;46467;-68
2022/08/02 00:11:24;;;;;;;6.13;3.23;;;17.70;64.10;;;;;;5061707;28;46334;-68
2022/08/02 00:13:49;;;;;;;6.83;3.60;;;17.70;64.10;;;;;;5061609;28;46433;-68
2022/08/02 00:16:15;;;;;;;8.70;3.30;;;17.70;64.10;;;;;;5060612;28;46595;-69
2022/08/02 00:18:41;;;;;;;7.40;3.30;;;17.80;64.20;;;;;;5062460;28;45819;-68
2022/08/02 00:21:06;;;;;;;10.50;3.67;;;17.70;64.20;;;;;;5061901;28;46593;-68
2022/08/02 00:23:32;;;;;;;7.47;3.50;;;17.70;64.20;;;;;;5061858;28;46356;-68
2022/08/02 00:25:58;;;;;;;5.97;3.70;;;17.70;64.10;;;;;;5061810;28;46114;-68
2022/08/02 00:28:25;;;;;;;7.60;4.07;;;17.70;63.80;;;;;;5061108;28;46408;-68
2022/08/02 00:30:51;;;;;;;8.70;3.67;;;17.80;63.80;;;;;;5062246;28;46457;-69
2022/08/02 00:33:16;;;;;;;5.20;3.50;;;17.80;63.60;;;;;;5061591;28;47053;-68
2022/08/02 00:35:42;;;;;;;9.10;4.03;;;17.80;63.90;;;;;;5060984;28;46530;-68
2022/08/02 00:38:08;;;;;;;10.03;3.70;;;17.80;63.90;;;;;;5061419;28;45794;-68
2022/08/02 00:40:33;;;;;;;16.60;4.40;;;17.80;64.10;;;;;;5059724;28;46375;-68
2022/08/02 00:43:05;;;;;;;4.80;3.27;;;17.80;64.30;;;;;;5061543;28;46471;-68
2022/08/02 00:45:32;;;;;;;6.90;3.47;;;17.70;64.30;;;;;;5060198;28;46479;-68
2022/08/02 00:47:57;;;;;;;6.63;3.30;;;17.70;64.40;;;;;;5059347;28;46445;-68
2022/08/02 00:50:23;;;;;;;8.70;3.60;;;17.70;64.50;;;;;;5063777;28;46378;-68
2022/08/02 00:52:49;;;;;;;5.33;3.00;;;17.70;64.50;;;;;;5059493;28;46421;-68
2022/08/02 00:55:14;;;;;;;9.60;3.63;;;17.70;64.40;;;;;;5059506;28;46339;-68
2022/08/02 00:57:40;;;;;;;8.30;3.07;;;17.70;65.60;;;;;;5058579;28;46412;-68
2022/08/02 01:00:06;;;;;;;4.97;3.07;;;17.70;64.50;;;;;;5060907;28;46240;-67
2022/08/02 01:02:32;;;;;;;6.53;3.63;;;17.80;63.50;;;;;;5058822;28;46370;-69
2022/08/02 01:04:57;;;;;;;7.13;2.67;;;17.70;64.30;;;;;;5062963;28;46358;-68
2022/08/02 01:07:23;;;;;;;5.37;3.27;;;17.70;64.40;;;;;;5060103;28;46376;-68
2022/08/02 01:09:49;;;;;;;3.80;2.60;;;17.80;64.40;;;;;;5060732;28;46604;-67
2022/08/02 01:12:14;;;;;;;7.80;2.50;;;17.70;64.50;;;;;;5059247;28;46419;-68
2022/08/02 01:14:43;;;;;;;9.87;2.87;;;17.70;63.50;;;;;;5059431;28;46463;-69
2022/08/02 01:17:31;;;;;;;5.10;2.37;;;17.70;64.80;;;;;;5060049;28;46410;-69
2022/08/02 01:20:24;;;;;;;6.53;2.80;;;17.60;65.00;;;;;;5059538;28;46608;-69
2022/08/02 01:23:12;;;;;;;5.20;2.70;;;17.60;65.10;;;;;;5057993;28;47115;-69
2022/08/02 01:25:44;;;;;;;6.07;2.57;;;17.70;65.10;;;;;;5060409;28;46385;-69
2022/08/02 01:28:39;;;;;;;4.83;2.50;;;17.70;64.90;;;;;;5059890;28;45951;-68
2022/08/02 01:31:20;;;;;;;5.73;2.80;;;17.70;64.80;;;;;;5060078;28;46369;-68
2022/08/02 01:34:19;;;;;;;4.73;2.40;;;17.70;64.80;;;;;;5059083;28;47156;-67
2022/08/02 01:36:50;;;;;;;4.70;2.80;;;17.70;64.70;;;;;;5058563;28;46376;-68
2022/08/02 01:39:20;;;;;;;10.73;3.60;;;17.70;64.70;;;;;;5061085;28;46326;-68
2022/08/02 01:41:46;;;;;;;8.77;3.60;;;17.70;64.80;;;;;;5059603;28;46349;-68
2022/08/02 01:44:13;;;;;;;5.63;3.27;;;17.70;64.80;;;;;;5057654;28;47424;-68
2022/08/02 01:46:41;;;;;;;6.00;3.17;;;17.70;65.00;;;;;;5058896;28;46393;-68
2022/08/02 01:49:14;;;;;;;12.00;2.80;;;17.70;64.90;;;;;;5061126;28;46460;-68
2022/08/02 01:54:30;;;;;;;13.10;3.20;;;17.60;65.40;;;;;;5057923;28;46514;-68
2022/08/02 01:56:57;;;;;;;9.57;3.17;;;17.50;65.50;;;;;;5058167;28;45871;-68
2022/08/02 01:59:26;;;;;;;7.27;3.10;;;17.50;65.90;;;;;;5058185;28;46595;-67
2022/08/02 02:01:54;;;;;;;8.70;3.57;;;17.40;66.20;;;;;;5059791;28;46460;-67
2022/08/02 02:04:21;;;;;;;8.13;3.10;;;17.30;65.60;;;;;;5058849;28;46196;-68
2022/08/02 02:06:48;;;;;;;13.80;3.47;;;17.30;66.90;;;;;;5057195;28;46379;-68
2022/08/02 02:09:16;;;;;;;6.90;3.23;;;17.20;67.20;;;;;;5054672;28;46485;-68
2022/08/02 02:11:43;;;;;;;6.57;3.27;;;17.10;67.40;;;;;;5056721;28;46382;-68
2022/08/02 02:14:11;;;;;;;8.13;3.00;;;17.00;67.00;;;;;;5058994;28;46553;-68
2022/08/02 02:16:39;;;;;;;12.83;3.60;;;16.90;68.10;;;;;;5053305;28;46367;-68
2022/08/02 02:19:07;;;;;;;6.17;3.40;;;16.80;68.20;;;;;;5057507;28;46528;-68
2022/08/02 02:21:32;;;;;;;9.63;3.60;;;16.70;68.40;;;;;;5058421;28;46671;-68
2022/08/02 02:23:58;;;;;;;8.83;3.40;;;16.70;67.80;;;;;;5056461;28;47513;-67
2022/08/02 02:26:26;;;;;;;6.50;3.20;;;16.60;68.90;;;;;;5059035;28;46560;-68
2022/08/02 02:28:52;;;;;;;6.47;2.80;;;16.50;69.10;;;;;;5058299;28;46377;-68
2022/08/02 02:31:20;;;;;;;11.50;3.10;;;16.50;69.20;;;;;;5059545;28;46494;-67
2022/08/02 02:34:03;;;;;;;6.83;3.50;;;16.50;69.10;;;;;;5059798;28;47210;-69
2022/08/02 02:36:29;;;;;;;5.73;3.47;;;16.50;69.50;;;;;;5060427;28;46600;-69
2022/08/02 02:38:58;;;;;;;9.47;3.60;;;16.50;69.30;;;;;;5058385;28;46363;-68
2022/08/02 02:41:25;;;;;;;13.40;4.00;;;16.50;69.40;;;;;;5059359;28;46620;-68
2022/08/02 02:43:54;;;;;;;8.50;3.93;;;16.50;69.40;;;;;;5059601;28;47907;-68
2022/08/02 02:46:21;;;;;;;6.60;3.33;;;16.50;69.00;;;;;;5059631;28;46439;-68
2022/08/02 02:48:50;;;;;;;6.93;3.03;;;16.50;68.90;;;;;;5059896;28;46402;-68
2022/08/02 02:51:16;;;;;;;8.30;3.43;;;16.50;68.70;;;;;;5058877;28;46374;-68
2022/08/02 02:53:43;;;;;;;6.03;3.07;;;16.50;68.80;;;;;;5059523;28;46902;-68
2022/08/02 02:56:10;;;;;;;5.90;3.13;;;16.50;68.80;;;;;;5057133;28;46298;-68
2022/08/02 02:58:38;;;;;;;12.10;2.97;;;16.50;68.80;;;;;;5058081;28;46428;-68
2022/08/02 03:03:49;;;;;;;4.23;3.00;;;16.40;67.70;;;;;;5057928;28;46388;-68
2022/08/02 03:06:14;;;;;;;8.53;3.70;;;16.40;68.50;;;;;;5061739;28;46635;-68
2022/08/02 03:08:40;;;;;;;5.03;3.60;;;16.40;68.60;;;;;;5061850;28;45759;-68
2022/08/02 03:11:08;;;;;;;8.20;3.90;;;16.40;68.60;;;;;;5060839;28;46474;-68
2022/08/02 03:13:35;;;;;;;8.80;3.27;;;16.40;68.80;;;;;;5061075;28;46030;-68
2022/08/02 03:16:01;;;;;;;14.30;4.37;;;16.30;68.90;;;;;;5062521;28;46365;-69
2022/08/02 03:18:36;;;;;;;13.43;3.80;;;16.30;69.10;;;;;;5062460;28;46493;-66
2022/08/02 03:21:04;;;;;;;17.90;4.43;;;16.30;69.40;;;;;;5055692;28;46276;-69
2022/08/02 03:23:30;;;;;;;6.50;3.60;;;16.20;69.40;;;;;;5062009;28;46881;-68
2022/08/02 03:25:56;;;;;;;10.10;3.30;;;16.20;69.60;;;;;;5060157;28;46825;-70
2022/08/02 03:28:22;;;;;;;19.50;4.07;;;16.10;70.00;;;;;;5060921;28;45948;-71
2022/08/02 03:30:48;;;;;;;10.03;3.37;;;16.10;70.00;;;;;;5060693;28;46415;-71
2022/08/02 03:33:14;;;;;;;11.10;3.50;;;16.10;68.80;;;;;;5061402;28;46423;-71
2022/08/02 03:35:41;;;;;;;8.80;3.67;;;16.10;69.50;;;;;;5060133;28;46377;-71
2022/08/02 03:38:07;;;;;;;6.30;4.40;;;16.10;69.40;;;;;;5059029;28;46515;-70
2022/08/02 03:40:35;;;;;;;6.43;3.50;;;16.10;69.20;;;;;;5062829;28;45822;-70
2022/08/02 03:43:01;;;;;;;7.80;4.40;;;16.10;68.40;;;;;;5059682;28;46364;-67
2022/08/02 03:45:28;;;;;;;7.30;3.77;;;16.10;69.30;;;;;;5061070;28;46421;-67
2022/08/02 03:47:55;;;;;;;9.00;4.30;;;16.10;69.10;;;;;;5061017;28;46453;-67
2022/08/02 03:50:21;;;;;;;6.03;3.80;;;16.10;69.10;;;;;;5061607;28;46465;-67
2022/08/02 03:52:47;;;;;;;8.77;4.03;;;16.00;69.20;;;;;;5058846;28;46728;-68
2022/08/02 03:55:13;;;;;;;9.00;3.57;;;16.00;69.50;;;;;;5060980;28;46519;-70
2022/08/02 03:57:41;;;;;;;8.93;4.20;;;16.00;69.80;;;;;;5061445;28;46534;-67
2022/08/02 04:00:08;;;;;;;8.53;4.30;;;16.00;69.90;;;;;;5061928;28;46306;-68
2022/08/02 04:02:35;;;;;;;8.53;4.10;;;16.10;68.90;;;;;;5060342;28;46276;-68
2022/08/02 04:05:01;;;;;;;8.30;5.00;;;16.10;69.50;;;;;;5057364;28;46816;-67
2022/08/02 04:07:26;;;;;;;17.07;4.60;;;16.10;69.70;;;;;;5057468;28;46586;-68
2022/08/02 04:09:52;;;;;;;11.00;4.50;;;16.10;69.90;;;;;;5061900;28;46435;-68
2022/08/02 04:12:18;;;;;;;9.57;4.30;;;16.10;70.00;;;;;;5061665;28;46668;-68
2022/08/02 04:14:44;;;;;;;8.17;4.00;;;16.10;69.00;;;;;;5061274;28;46455;-68
2022/08/02 04:17:11;;;;;;;12.13;3.80;;;16.10;70.10;;;;;;5060972;28;46373;-68
2022/08/02 04:19:44;;;;;;;8.60;4.60;;;16.10;70.00;;;;;;5059150;28;46463;-68
2022/08/02 04:22:15;;;;;;;12.47;4.07;;;16.20;70.10;;;;;;5061623;28;47274;-68
2022/08/02 04:24:46;;;;;;;11.80;4.70;;;16.20;68.50;;;;;;5061379;28;46467;-68
2022/08/02 04:27:12;;;;;;;6.43;3.70;;;16.30;69.20;;;;;;5061918;28;45852;-68
2022/08/02 04:29:39;;;;;;;9.80;4.07;;;16.40;69.20;;;;;;5062696;28;46331;-68
2022/08/02 04:32:06;;;;;;;9.17;4.23;;;16.40;69.00;;;;;;5061610;28;47270;-68
2022/08/02 04:34:32;;;;;;;11.60;3.87;;;16.40;67.90;;;;;;5061530;28;46454;-68
2022/08/02 04:36:58;;;;;;;6.70;3.90;;;16.50;68.80;;;;;;5060539;28;46429;-68
2022/08/02 04:39:24;;;;;;;10.03;3.90;;;16.60;68.70;;;;;;5061728;28;46924;-68
2022/08/02 04:41:50;;;;;;;15.80;4.30;;;16.60;68.50;;;;;;5060731;28;46654;-68
2022/08/02 04:44:16;;;;;;;6.77;3.73;;;16.70;67.50;;;;;;5061854;28;46398;-68
2022/08/02 04:46:43;;;;;;;7.50;3.60;;;16.80;68.30;;;;;;5060987;28;46311;-68
2022/08/02 04:49:08;;;;;;;13.37;4.63;;;16.90;68.10;;;;;;5061035;28;46318;-68
2022/08/02 04:51:36;;;;;;;6.13;3.60;;;17.00;67.80;;;;;;5061087;28;46420;-68
2022/08/02 04:54:03;;;;;;;12.30;3.60;;;17.10;66.70;;;;;;5059744;28;46783;-68
2022/08/02 04:56:28;;;;;;;7.53;3.07;;;17.10;67.60;;;;;;5061396;28;46423;-68
2022/08/02 04:58:54;;;;;;;6.13;3.73;;;17.30;67.40;;;;;;5061620;28;46553;-68
2022/08/02 05:01:20;;;;;;;7.53;3.07;;;17.60;66.60;;;;;;5060286;28;47259;-68
2022/08/02 05:03:45;;;;;;;7.80;2.80;;;18.80;65.20;;;;;;5061088;28;46477;-68
2022/08/02 05:06:11;;;;;;;6.10;2.50;;;20.30;64.30;;;;;;5060131;28;46316;-68
2022/08/02 05:08:36;;;;;;;4.87;1.80;;;21.60;61.10;;;;;;5065979;28;45949;-69
2022/08/02 05:11:02;;;;;;;3.00;1.87;;;22.80;58.10;;;;;;5060152;28;46664;-68
2022/08/02 05:13:28;;;;;;;4.53;2.30;;;23.60;56.10;;;;;;5060133;28;46338;-69
2022/08/02 05:15:53;;;;;;;3.93;2.03;;;24.40;53.80;;;;;;5061318;28;46366;-69
2022/08/02 05:18:19;;;;;;;3.53;1.87;;;24.90;52.20;;;;;;5061036;28;46440;-68
2022/08/02 05:20:44;;;;;;;3.77;2.20;;;24.60;51.90;;;;;;5060185;28;46381;-68
2022/08/02 05:23:10;;;;;;;4.67;2.13;;;24.60;51.90;;;;;;5061219;28;46373;-68
2022/08/02 05:25:36;;;;;;;4.20;1.90;;;25.20;50.50;;;;;;5059573;28;46469;-68
2022/08/02 05:28:01;;;;;;;7.90;2.27;;;26.10;48.20;;;;;;5059730;28;45878;-68
2022/08/02 05:30:27;;;;;;;5.57;1.93;;;27.00;45.00;;;;;;5056677;28;47094;-68
2022/08/02 05:32:52;;;;;;;3.90;1.83;;;27.70;40.50;;;;;;5061255;28;46466;-69
2022/08/02 05:35:22;;;;;;;7.63;2.50;;;28.40;38.00;;;;;;5059905;28;46534;-69
2022/08/02 05:37:49;;;;;;;4.67;1.90;;;28.80;35.40;;;;;;5060661;28;46420;-68
2022/08/02 05:40:15;;;;;;;8.47;1.93;;;29.30;33.50;;;;;;5060822;28;46050;-68
2022/08/02 05:42:41;;;;;;;4.30;1.90;;;30.10;30.20;;;;;;5060015;28;46485;-69
2022/08/02 05:45:07;;;;;;;3.67;1.90;;;30.10;29.70;;;;;;5061317;28;46465;-68
2022/08/02 05:47:33;;;;;;;4.57;2.70;;;30.50;28.90;;;;;;5060116;28;46394;-68
2022/08/02 05:49:58;;;;;;;4.30;2.00;;;30.70;27.90;;;;;;5059104;28;46472;-68
2022/08/02 05:52:27;;;;;;;3.40;2.00;;;31.10;25.70;;;;;;5059725;28;46324;-69
2022/08/02 05:55:07;;;;;;;4.43;1.90;;;31.10;26.10;;;;;;5059849;28;46378;-69
2022/08/02 05:58:01;;;;;;;3.63;2.17;;;31.10;24.90;;;;;;5060616;28;46565;-67
2022/08/02 06:00:30;;;;;;;4.63;1.57;;;31.20;24.50;;;;;;5059818;28;46430;-68
2022/08/02 06:03:03;;;;;;;3.83;1.80;;;31.20;24.70;;;;;;5059655;28;46393;-68
2022/08/02 06:05:33;;;;;;;5.63;1.90;;;31.20;24.00;;;;;;5060653;28;46521;-68
2022/08/02 06:07:59;;;;;;;9.23;2.10;;;31.30;23.80;;;;;;5058258;28;46550;-68
2022/08/02 06:10:27;;;;;;;4.40;1.70;;;31.50;23.30;;;;;;5058245;28;47143;-68
2022/08/02 06:13:08;;;;;;;5.10;2.13;;;31.50;22.90;;;;;;5060681;28;45982;-68
2022/08/02 06:15:35;;;;;;;6.67;2.17;;;31.30;22.30;;;;;;5057606;28;46340;-68
2022/08/02 06:18:03;;;;;;;4.33;2.00;;;31.50;22.40;;;;;;5060162;28;46563;-69
2022/08/02 06:20:38;;;;;;;4.50;1.77;;;31.60;21.70;;;;;;5058227;28;48277;-69
2022/08/02 06:23:07;;;;;;;2.37;1.60;;;32.00;19.90;;;;;;5059094;28;46504;-69
2022/08/02 06:25:35;;;;;;;3.77;1.60;;;32.10;19.70;;;;;;5058998;28;46359;-69
2022/08/02 06:28:03;;;;;;;4.30;1.90;;;32.10;19.50;;;;;;5058879;28;46673;-69
2022/08/02 06:30:29;;;;;;;4.17;1.47;;;30.60;22.90;;;;;;5058103;28;47036;-69
2022/08/02 06:32:55;;;;;;;3.20;2.00;;;29.20;26.10;;;;;;5059059;28;46409;-69
2022/08/02 06:35:22;;;;;;;6.10;1.90;;;28.00;28.70;;;;;;5058498;28;46491;-68
2022/08/02 06:38:07;;;;;;;5.37;2.00;;;27.50;30.00;;;;;;5059782;28;46542;-68
2022/08/02 06:40:59;;;;;;;4.30;1.90;;;28.50;26.30;;;;;;5062198;28;46270;-68
2022/08/02 06:43:52;;;;;;;4.00;1.80;;;29.70;22.10;;;;;;5062562;28;46422;-68
2022/08/02 06:46:17;;;;;;;4.13;2.63;;;30.40;20.20;;;;;;5062908;28;46433;-68
2022/08/02 06:48:43;;;;;;;4.07;2.33;;;30.80;18.90;;;;;;5062410;28;46591;-68
2022/08/02 06:51:09;;;;;;;3.93;1.93;;;30.90;18.00;;;;;;5062967;28;48372;-67
2022/08/02 06:53:34;;;;;;;4.53;2.13;;;30.90;18.00;;;;;;5063492;28;46393;-68
2022/08/02 06:56:00;;;;;;;3.83;2.30;;;30.90;18.00;;;;;;5061502;28;45779;-68
2022/08/02 06:58:25;;;;;;;8.20;2.00;;;30.50;20.40;;;;;;5064135;28;46373;-68
2022/08/02 07:00:51;;;;;;;3.30;1.90;;;29.70;21.80;;;;;;5063253;28;47108;-68
2022/08/02 07:03:17;;;;;;;3.40;1.93;;;28.80;24.30;;;;;;5063554;28;46488;-68
2022/08/02 07:05:47;;;;;;;3.30;2.13;;;28.20;25.80;;;;;;5061727;28;46356;-68
2022/08/02 07:08:14;;;;;;;4.27;2.33;;;27.70;27.30;;;;;;5061194;28;46639;-68
2022/08/02 07:10:39;;;;;;;5.10;2.40;;;27.20;27.10;;;;;;5061702;28;46416;-68
2022/08/02 07:13:05;;;;;;;6.67;2.10;;;26.70;27.70;;;;;;5062096;28;46394;-69
2022/08/02 07:15:31;;;;;;;4.63;2.13;;;26.40;28.10;;;;;;5062040;28;46392;-69
2022/08/02 07:17:57;;;;;;;3.43;2.13;;;26.20;28.50;;;;;;5063205;28;45994;-69
2022/08/02 07:20:23;;;;;;;5.40;2.50;;;26.10;28.90;;;;;;5061434;28;46410;-68
2022/08/02 07:22:48;;;;;;;5.90;2.30;;;25.80;29.10;;;;;;5062337;28;46341;-68
2022/08/02 07:25:14;;;;;;;4.73;2.10;;;25.80;29.10;;;;;;5061701;28;46420;-68
2022/08/02 07:27:40;;;;;;;5.67;2.77;;;25.70;29.10;;;;;;5063067;28;46525;-68
2022/08/02 07:30:06;;;;;;;6.90;2.83;;;25.50;29.60;;;;;;5060486;28;46450;-68
2022/08/02 07:32:32;;;;;;;5.03;2.30;;;25.40;29.70;;;;;;5060071;28;46528;-68
2022/08/02 07:34:58;;;;;;;5.33;2.53;;;25.40;30.50;;;;;;5062817;28;46267;-68
2022/08/02 07:37:27;;;;;;;5.80;2.37;;;25.40;30.50;;;;;;5061545;28;46354;-68
2022/08/02 07:39:53;;;;;;;4.43;2.30;;;25.40;31.00;;;;;;5062123;28;46624;-68
2022/08/02 07:42:18;;;;;;;5.03;2.77;;;25.40;31.00;;;;;;5061158;28;46362;-68
2022/08/02 07:44:44;;;;;;;5.37;2.73;;;25.30;29.90;;;;;;5062082;28;46430;-68
2022/08/02 07:47:09;;;;;;;4.27;2.63;;;25.40;30.90;;;;;;5062262;28;46382;-67
2022/08/02 07:49:35;;;;;;;10.50;2.83;;;25.40;31.10;;;;;;5061969;28;47170;-67
2022/08/02 07:52:00;;;;;;;4.83;2.37;;;25.40;31.40;;;;;;5060613;28;46690;-68
2022/08/02 07:54:26;;;;;;;5.30;2.60;;;25.30;30.50;;;;;;5061044;28;46579;-68
2022/08/02 07:56:53;;;;;;;3.43;2.30;;;25.30;31.50;;;;;;5062669;28;46303;-68
2022/08/02 07:59:19;;;;;;;4.03;2.40;;;25.50;31.10;;;;;;5063066;28;46353;-68
2022/08/02 08:01:45;;;;;;;3.90;2.73;;;25.40;30.80;;;;;;5063397;28;46459;-68
2022/08/02 08:04:11;;;;;;;3.70;2.23;;;25.40;30.00;;;;;;5061537;28;46125;-67
2022/08/02 08:06:36;;;;;;;3.37;2.07;;;25.50;31.10;;;;;;5061766;28;46647;-68
2022/08/02 08:09:02;;;;;;;3.90;2.50;;;25.50;31.70;;;;;;5061462;28;47938;-68
2022/08/02 08:11:28;;;;;;;3.27;2.13;;;25.50;31.50;;;;;;5062011;28;46646;-68
2022/08/02 08:13:54;;;;;;;5.10;2.43;;;25.50;31.00;;;;;;5061110;28;46426;-68
2022/08/02 08:16:20;;;;;;;7.23;2.30;;;25.60;32.20;;;;;;5061916;28;46272;-68
2022/08/02 08:18:45;;;;;;;3.67;2.30;;;25.80;32.00;;;;;;5061361;28;46581;-68
2022/08/02 08:21:11;;;;;;;3.60;2.33;;;26.00;31.40;;;;;;5061941;28;46356;-68
2022/08/02 08:23:37;;;;;;;3.13;2.23;;;26.20;29.80;;;;;;5059952;28;46447;-68
2022/08/02 08:26:03;;;;;;;4.20;2.17;;;26.30;30.70;;;;;;5062586;28;46574;-68
2022/08/02 08:28:28;;;;;;;4.17;2.10;;;26.40;30.40;;;;;;5060021;28;46037;-68
2022/08/02 08:30:54;;;;;;;3.50;2.27;;;26.40;30.50;;;;;;5061564;28;45835;-68
2022/08/02 08:33:20;;;;;;;7.53;2.30;;;26.50;29.50;;;;;;5061282;28;46532;-68
2022/08/02 08:35:45;;;;;;;3.27;2.10;;;26.60;30.20;;;;;;5062236;28;46456;-68
2022/08/02 08:38:11;;;;;;;4.40;2.30;;;26.60;30.10;;;;;;5060945;28;45997;-68
2022/08/02 08:40:37;;;;;;;5.93;1.87;;;26.80;30.00;;;;;;5060688;28;46363;-68
2022/08/02 08:43:04;;;;;;;3.57;2.10;;;26.70;29.10;;;;;;5061694;28;46283;-68
2022/08/02 08:45:29;;;;;;;2.70;1.63;;;26.70;29.70;;;;;;5062965;28;46410;-68
2022/08/02 08:48:12;;;;;;;8.63;1.63;;;26.80;29.60;;;;;;5061259;28;46956;-68
2022/08/02 08:50:43;;;;;;;3.47;1.73;;;26.80;30.40;;;;;;5061680;28;46439;-68
2022/08/02 08:53:09;;;;;;;3.27;1.70;;;27.00;28.30;;;;;;5061173;28;46450;-68
2022/08/02 08:55:36;;;;;;;5.60;1.97;;;26.90;28.70;;;;;;5060701;28;46577;-69
2022/08/02 08:58:03;;;;;;;4.07;1.90;;;26.80;28.30;;;;;;5060333;28;46401;-69
2022/08/02 09:00:31;;;;;;;4.60;1.60;;;26.80;28.20;;;;;;5060384;28;46318;-68
2022/08/02 09:02:57;;;;;;;4.90;1.60;;;26.80;27.40;;;;;;5060128;28;46428;-67
2022/08/02 09:05:24;;;;;;;3.47;1.80;;;26.90;28.00;;;;;;5062125;28;46448;-68
2022/08/02 09:07:51;;;;;;;4.20;1.90;;;27.00;27.80;;;;;;5058963;28;46330;-68
2022/08/02 09:10:40;;;;;;;4.73;1.73;;;27.00;28.00;;;;;;5060269;28;46377;-69
2022/08/02 09:13:07;;;;;;;4.70;1.87;;;26.90;27.80;;;;;;5061180;28;45800;-68
2022/08/02 09:15:33;;;;;;;8.40;2.00;;;27.10;28.60;;;;;;5062115;28;46390;-67
2022/08/02 09:17:58;;;;;;;7.73;2.00;;;27.10;28.20;;;;;;5060011;28;46483;-68
2022/08/02 09:20:24;;;;;;;13.17;2.83;;;27.30;27.70;;;;;;5061131;28;46463;-68
2022/08/02 09:23:10;;;;;;;24.23;2.27;;;27.50;26.50;;;;;;5061191;28;46700;-68
2022/08/02 09:25:36;;;;;;;6.23;2.07;;;27.50;27.40;;;;;;5060845;28;45910;-68
2022/08/02 09:28:05;;;;;;;6.00;1.80;;;27.50;27.30;;;;;;5060160;28;46621;-69
2022/08/02 09:30:32;;;;;;;8.73;2.10;;;27.60;27.40;;;;;;5060194;28;46372;-68
2022/08/02 09:32:58;;;;;;;3.33;1.70;;;27.90;26.00;;;;;;5059839;28;46473;-68
2022/08/02 09:35:31;;;;;;;3.57;1.60;;;27.90;26.70;;;;;;5061086;28;46378;-68
2022/08/02 09:38:11;;;;;;;2.50;1.50;;;27.70;26.30;;;;;;5058889;28;46439;-68
2022/08/02 09:40:38;;;;;;;4.10;1.67;;;27.60;25.40;;;;;;5059416;28;46322;-68
2022/08/02 09:43:05;;;;;;;3.67;1.30;;;27.90;23.80;;;;;;5061527;28;45826;-68
2022/08/02 09:45:33;;;;;;;3.53;1.63;;;27.90;24.30;;;;;;5059865;28;46650;-68
2022/08/02 09:48:08;;;;;;;3.10;1.57;;;27.80;23.70;;;;;;5060307;28;46413;-68
2022/08/02 09:50:38;;;;;;;3.60;1.57;;;27.80;23.70;;;;;;5060863;28;45952;-68
2022/08/02 09:53:05;;;;;;;7.03;1.80;;;28.00;22.40;;;;;;5060626;28;46403;-68
2022/08/02 09:55:30;;;;;;;6.73;1.70;;;28.10;22.90;;;;;;5058932;28;46510;-69
2022/08/02 09:57:56;;;;;;;4.40;1.70;;;28.40;22.40;;;;;;5059918;28;46795;-68
2022/08/02 10:00:22;;;;;;;3.73;1.70;;;28.60;22.20;;;;;;5060513;28;46444;-68
2022/08/02 10:03:10;;;;;;;3.00;1.57;;;28.30;21.70;;;;;;5059447;28;46350;-68
2022/08/02 10:05:53;;;;;;;3.00;1.60;;;28.30;22.30;;;;;;5059202;28;46437;-68
2022/08/02 10:08:20;;;;;;;7.63;1.70;;;28.00;22.20;;;;;;5058594;28;46500;-69
2022/08/02 10:10:46;;;;;;;2.60;1.33;;;27.80;22.60;;;;;;5060262;28;45811;-68
2022/08/02 10:13:14;;;;;;;5.90;1.77;;;27.80;21.80;;;;;;5058699;28;46390;-68
2022/08/02 10:15:40;;;;;;;2.37;1.40;;;27.60;23.00;;;;;;5063712;28;46821;-68
2022/08/02 10:18:07;;;;;;;2.70;1.60;;;27.50;23.70;;;;;;5059716;28;47650;-68
2022/08/02 10:20:43;;;;;;;4.73;1.43;;;27.80;24.00;;;;;;5060665;28;46375;-68
2022/08/02 10:23:12;;;;;;;4.17;1.93;;;27.90;22.20;;;;;;5058609;28;46512;-68
2022/08/02 10:25:38;;;;;;;4.00;1.63;;;27.90;22.60;;;;;;5059811;28;46383;-67
2022/08/02 10:28:06;;;;;;;3.47;1.80;;;27.90;22.50;;;;;;5058146;28;46318;-68
2022/08/02 10:30:36;;;;;;;2.97;1.60;;;27.90;22.70;;;;;;5065651;28;46569;-68
2022/08/02 10:33:04;;;;;;;2.83;1.33;;;28.00;21.80;;;;;;5059176;28;46468;-69
2022/08/02 10:35:35;;;;;;;4.53;1.60;;;27.90;22.20;;;;;;5060725;28;46605;-69
2022/08/02 10:38:06;;;;;;;4.03;1.50;;;27.90;21.90;;;;;;5058495;28;46512;-69
2022/08/02 10:40:50;;;;;;;2.90;1.50;;;27.70;22.00;;;;;;5059186;28;46513;-69
2022/08/02 10:43:30;;;;;;;2.83;1.70;;;27.30;22.00;;;;;;5060047;28;46433;-69
2022/08/02 10:46:30;;;;;;;2.90;1.23;;;27.20;22.60;;;;;;5058868;28;46324;-68
2022/08/02 10:49:11;;;;;;;2.70;1.70;;;27.20;22.10;;;;;;5054384;28;47251;-68
2022/08/02 10:52:01;;;;;;;3.07;1.67;;;27.30;22.30;;;;;;5059952;28;46589;-68
2022/08/02 10:54:41;;;;;;;2.50;1.50;;;27.20;21.80;;;;;;5059350;28;46486;-68
2022/08/02 10:57:16;;;;;;;2.30;1.40;;;27.00;22.70;;;;;;5059445;28;46510;-67
2022/08/02 10:59:42;;;;;;;2.93;1.50;;;27.10;22.50;;;;;;5059844;28;46020;-68
2022/08/02 11:02:08;;;;;;;2.67;1.30;;;27.10;22.40;;;;;;5059047;28;46442;-67
2022/08/02 11:04:36;;;;;;;3.47;1.80;;;27.20;21.40;;;;;;5059610;28;45804;-69
2022/08/02 11:07:19;;;;;;;3.10;1.77;;;27.30;22.60;;;;;;5060320;28;46460;-68
2022/08/02 11:09:46;;;;;;;3.47;1.37;;;27.50;21.20;;;;;;5059805;28;46382;-68
2022/08/02 11:12:18;;;;;;;3.37;1.50;;;27.60;20.80;;;;;;5059289;28;46417;-68
2022/08/02 11:15:04;;;;;;;2.17;1.23;;;27.70;20.30;;;;;;5057650;28;46785;-68
2022/08/02 11:17:59;;;;;;;5.30;1.60;;;27.80;20.80;;;;;;5058415;28;45835;-69
2022/08/02 11:20:27;;;;;;;2.40;1.30;;;28.10;20.30;;;;;;5035613;28;49258;-68
2022/08/02 11:22:54;;;;;;;4.10;1.30;;;28.30;19.70;;;;;;5058467;28;46348;-68
2022/08/02 11:25:23;;;;;;;4.67;1.40;;;28.20;19.80;;;;;;5059411;28;46625;-69
2022/08/02 11:27:50;;;;;;;3.03;1.33;;;28.20;19.70;;;;;;5061625;28;46520;-68
2022/08/02 11:30:16;;;;;;;2.40;1.40;;;28.30;20.20;;;;;;5061744;28;46641;-68
2022/08/02 11:32:42;;;;;;;4.43;1.37;;;28.30;19.00;;;;;;5061319;28;46691;-68
2022/08/02 11:35:08;;;;;;;4.37;1.40;;;28.20;19.60;;;;;;5063521;28;46445;-69
2022/08/02 11:37:39;;;;;;;2.47;1.30;;;28.00;19.90;;;;;;5060961;28;46485;-68
2022/08/02 11:40:11;;;;;;;2.70;1.33;;;28.00;19.40;;;;;;5061515;28;48046;-68
2022/08/02 11:42:39;;;;;;;4.73;1.40;;;28.50;18.70;;;;;;5060723;28;46518;-68
2022/08/02 11:45:07;;;;;;;2.80;1.40;;;28.50;19.40;;;;;;5062833;28;46385;-68
2022/08/02 11:47:33;;;;;;;3.07;1.40;;;28.90;18.90;;;;;;5062215;28;46509;-68
2022/08/02 11:50:09;;;;;;;8.07;1.37;;;29.10;18.20;;;;;;5062272;28;47230;-68
2022/08/02 11:52:36;;;;;;;3.33;1.27;;;29.10;16.30;;;;;;5062021;28;46385;-68
2022/08/02 11:55:03;;;;;;;2.37;1.37;;;29.10;17.10;;;;;;5063280;28;46403;-68
2022/08/02 11:57:28;;;;;;;3.03;1.13;;;28.90;17.00;;;;;;5060783;28;46372;-67
2022/08/02 11:59:55;;;;;;;4.37;1.50;;;29.00;17.00;;;;;;5061462;28;46457;-68
2022/08/02 12:02:26;;;;;;;12.13;1.53;;;29.10;17.30;;;;;;5062853;28;46311;-68
2022/08/02 12:04:58;;;;;;;2.30;1.40;;;29.10;17.60;;;;;;5063296;28;46332;-68
2022/08/02 12:07:30;;;;;;;3.33;1.50;;;29.00;17.80;;;;;;5060445;28;46346;-69
2022/08/02 12:10:01;;;;;;;2.70;1.53;;;29.00;18.20;;;;;;5061589;28;46418;-69
2022/08/02 12:12:27;;;;;;;2.47;1.23;;;29.00;16.60;;;;;;5062256;28;46409;-69
2022/08/02 12:14:53;;;;;;;2.77;1.30;;;29.00;17.30;;;;;;5069496;28;46296;-69
2022/08/02 12:20:08;;;;;;;2.30;1.30;;;28.50;16.70;;;;;;5059320;28;46323;-69
2022/08/02 12:22:35;;;;;;;8.10;2.00;;;28.70;15.70;;;;;;5061267;28;46428;-68
2022/08/02 12:25:18;;;;;;;2.50;1.30;;;28.70;16.20;;;;;;5063224;28;46452;-68
2022/08/02 12:27:43;;;;;;;4.63;1.20;;;28.80;16.10;;;;;;5060465;28;46517;-68
2022/08/02 12:30:12;;;;;;;4.87;1.40;;;28.80;16.10;;;;;;5061889;28;47187;-69
2022/08/02 12:32:39;;;;;;;2.93;1.30;;;28.70;16.00;;;;;;5061373;28;46484;-68
2022/08/02 12:35:12;;;;;;;2.57;1.40;;;28.70;16.90;;;;;;5060716;28;46354;-68
2022/08/02 12:37:44;;;;;;;2.27;1.20;;;28.70;16.90;;;;;;5059639;28;45805;-68
2022/08/02 12:40:29;;;;;;;3.07;1.33;;;28.70;16.90;;;;;;5062031;28;46691;-68
2022/08/02 12:42:58;;;;;;;5.73;1.20;;;28.80;16.70;;;;;;5061017;28;45920;-69
2022/08/02 12:45:26;;;;;;;2.10;1.00;;;28.80;16.70;;;;;;5060162;28;46314;-68
2022/08/02 12:47:53;;;;;;;2.50;1.17;;;29.00;16.50;;;;;;5059666;28;46437;-68
2022/08/02 12:50:33;;;;;;;3.90;1.37;;;29.10;16.30;;;;;;5061630;28;47322;-68
2022/08/02 12:53:08;;;;;;;2.30;1.33;;;29.00;15.60;;;;;;5062105;28;46479;-67
2022/08/02 12:55:36;;;;;;;2.97;1.43;;;29.00;15.80;;;;;;5060333;28;46326;-68
2022/08/02 12:58:04;;;;;;;3.00;1.70;;;29.10;15.90;;;;;;5061059;28;46420;-68
2022/08/02 13:00:33;;;;;;;3.40;1.40;;;29.10;15.70;;;;;;5060561;27;47169;-68
2022/08/02 13:02:59;;;;;;;2.93;1.30;;;29.10;15.50;;;;;;5060816;28;46370;-68